sensor_id;sensor_type;location;lat;lon;timestamp;pressure;altitude;pressure_sealevel;temperature;humidity
6096;BME280;25081;42.698;23.298;2023-04-15T00:01:19;94527.41;;;8.00;72.14
6096;BME280;25081;42.698;23.298;2023-04-15T00:03:29;94523.81;;;8.03;71.75
6096;BME280;25081;42.698;23.298;2023-04-15T00:05:40;94519.25;;;8.01;72.34
6096;BME280;25081;42.698;23.298;2023-04-15T00:07:50;94521.23;;;8.06;72.45
6096;BME280;25081;42.698;23.298;2023-04-15T00:10:01;94523.80;;;7.94;71.82
6096;BME280;25081;42.698;23.298;2023-04-15T00:12:12;94520.05;;;7.93;72.17
6096;BME280;25081;42.698;23.298;2023-04-15T00:14:22;94525.65;;;7.94;72.71
6096;BME280;25081;42.698;23.298;2023-04-15T00:16:33;94527.27;;;7.95;73.41
6096;BME280;25081;42.698;23.298;2023-04-15T00:18:43;94514.06;;;7.97;73.20
6096;BME280;25081;42.698;23.298;2023-04-15T00:20:53;94509.56;;;7.98;73.32
6096;BME280;25081;42.698;23.298;2023-04-15T00:23:04;94505.45;;;7.84;73.07
6096;BME280;25081;42.698;23.298;2023-04-15T00:25:15;94515.12;;;7.62;74.64
6096;BME280;25081;42.698;23.298;2023-04-15T00:27:25;94519.03;;;7.60;75.93
6096;BME280;25081;42.698;23.298;2023-04-15T00:29:36;94523.77;;;7.67;76.11
6096;BME280;25081;42.698;23.298;2023-04-15T00:31:46;94516.62;;;7.77;75.50
6096;BME280;25081;42.698;23.298;2023-04-15T00:33:56;94512.50;;;7.90;74.89
6096;BME280;25081;42.698;23.298;2023-04-15T00:36:07;94523.42;;;8.00;74.81
6096;BME280;25081;42.698;23.298;2023-04-15T00:38:18;94531.78;;;8.13;74.60
6096;BME280;25081;42.698;23.298;2023-04-15T00:40:28;94526.60;;;8.18;74.20
6096;BME280;25081;42.698;23.298;2023-04-15T00:42:39;94528.03;;;8.20;75.12
6096;BME280;25081;42.698;23.298;2023-04-15T00:44:49;94522.69;;;8.29;75.29
6096;BME280;25081;42.698;23.298;2023-04-15T00:47:00;94521.45;;;8.32;76.05
6096;BME280;25081;42.698;23.298;2023-04-15T00:49:10;94517.47;;;8.32;76.14
6096;BME280;25081;42.698;23.298;2023-04-15T00:51:21;94513.87;;;8.36;76.51
6096;BME280;25081;42.698;23.298;2023-04-15T00:53:31;94511.13;;;8.24;76.83
6096;BME280;25081;42.698;23.298;2023-04-15T00:55:42;94512.80;;;7.91;77.61
6096;BME280;25081;42.698;23.298;2023-04-15T00:57:52;94521.99;;;7.70;78.45
6096;BME280;25081;42.698;23.298;2023-04-15T01:00:03;94511.59;;;7.59;78.45
6096;BME280;25081;42.698;23.298;2023-04-15T01:02:14;94515.12;;;7.62;78.70
6096;BME280;25081;42.698;23.298;2023-04-15T01:04:24;94521.35;;;7.74;77.76
6096;BME280;25081;42.698;23.298;2023-04-15T01:06:35;94529.55;;;7.82;78.56
6096;BME280;25081;42.698;23.298;2023-04-15T01:08:45;94539.21;;;7.95;78.77
6096;BME280;25081;42.698;23.298;2023-04-15T01:10:56;94537.08;;;8.03;79.62
6096;BME280;25081;42.698;23.298;2023-04-15T01:13:06;94537.44;;;7.98;79.92
6096;BME280;25081;42.698;23.298;2023-04-15T01:15:17;94532.05;;;7.86;80.55
6096;BME280;25081;42.698;23.298;2023-04-15T01:17:27;94527.98;;;7.74;80.97
6096;BME280;25081;42.698;23.298;2023-04-15T01:19:38;94524.94;;;7.71;81.86
6096;BME280;25081;42.698;23.298;2023-04-15T01:21:48;94517.38;;;7.74;81.02
6096;BME280;25081;42.698;23.298;2023-04-15T01:23:58;94522.02;;;7.88;80.68
6096;BME280;25081;42.698;23.298;2023-04-15T01:26:09;94521.96;;;7.95;79.50
6096;BME280;25081;42.698;23.298;2023-04-15T01:28:19;94519.61;;;8.05;79.84
6096;BME280;25081;42.698;23.298;2023-04-15T01:30:33;94520.05;;;7.93;80.57
6096;BME280;25081;42.698;23.298;2023-04-15T01:32:43;94519.02;;;7.94;80.37
6096;BME280;25081;42.698;23.298;2023-04-15T01:34:54;94524.74;;;7.91;79.42
6096;BME280;25081;42.698;23.298;2023-04-15T01:37:04;94517.23;;;7.97;79.03
6096;BME280;25081;42.698;23.298;2023-04-15T01:39:15;94508.47;;;8.06;78.28
6096;BME280;25081;42.698;23.298;2023-04-15T01:41:26;94518.41;;;8.10;79.19
6096;BME280;25081;42.698;23.298;2023-04-15T01:43:36;94521.16;;;8.13;80.58
6096;BME280;25081;42.698;23.298;2023-04-15T01:45:47;94521.23;;;8.06;80.65
6096;BME280;25081;42.698;23.298;2023-04-15T01:47:57;94529.41;;;7.95;81.56
6096;BME280;25081;42.698;23.298;2023-04-15T01:50:09;94524.38;;;7.87;82.65
6096;BME280;25081;42.698;23.298;2023-04-15T01:52:20;94526.38;;;7.83;82.21
6096;BME280;25081;42.698;23.298;2023-04-15T01:54:30;94532.55;;;7.77;82.96
6096;BME280;25081;42.698;23.298;2023-04-15T01:56:41;94535.55;;;7.71;83.32
6096;BME280;25081;42.698;23.298;2023-04-15T01:58:51;94531.66;;;7.64;82.34
6096;BME280;25081;42.698;23.298;2023-04-15T02:01:02;94534.41;;;7.51;82.98
6096;BME280;25081;42.698;23.298;2023-04-15T02:03:13;94537.74;;;7.56;83.60
6096;BME280;25081;42.698;23.298;2023-04-15T02:05:23;94544.30;;;7.62;83.04
6096;BME280;25081;42.698;23.298;2023-04-15T02:07:34;94546.76;;;7.64;83.24
6096;BME280;25081;42.698;23.298;2023-04-15T02:09:44;94540.27;;;7.69;83.38
6096;BME280;25081;42.698;23.298;2023-04-15T02:11:55;94542.92;;;7.69;83.49
6096;BME280;25081;42.698;23.298;2023-04-15T02:14:05;94542.02;;;7.57;84.76
6096;BME280;25081;42.698;23.298;2023-04-15T02:16:19;94538.63;;;7.59;84.67
6096;BME280;25081;42.698;23.298;2023-04-15T02:18:29;94531.62;;;7.55;84.69
6096;BME280;25081;42.698;23.298;2023-04-15T02:20:40;94535.61;;;7.55;84.58
6096;BME280;25081;42.698;23.298;2023-04-15T02:22:50;94538.38;;;7.51;84.52
6096;BME280;25081;42.698;23.298;2023-04-15T02:25:01;94531.53;;;7.53;84.61
6096;BME280;25081;42.698;23.298;2023-04-15T02:27:12;94535.41;;;7.41;84.56
6096;BME280;25081;42.698;23.298;2023-04-15T02:29:22;94535.37;;;7.32;83.20
6096;BME280;25081;42.698;23.298;2023-04-15T02:31:32;94531.03;;;7.28;82.90
6096;BME280;25081;42.698;23.298;2023-04-15T02:33:43;94526.58;;;7.22;82.27
6096;BME280;25081;42.698;23.298;2023-04-15T02:35:53;94531.52;;;7.18;82.47
6096;BME280;25081;42.698;23.298;2023-04-15T02:38:04;94537.06;;;7.10;81.60
6096;BME280;25081;42.698;23.298;2023-04-15T02:40:14;94535.63;;;7.14;81.70
6096;BME280;25081;42.698;23.298;2023-04-15T02:42:25;94537.50;;;7.07;81.29
6096;BME280;25081;42.698;23.298;2023-04-15T02:44:35;94545.45;;;7.07;80.89
6096;BME280;25081;42.698;23.298;2023-04-15T02:46:45;94546.14;;;6.96;80.63
6096;BME280;25081;42.698;23.298;2023-04-15T02:48:56;94549.78;;;6.86;80.88
6096;BME280;25081;42.698;23.298;2023-04-15T02:53:24;94541.38;;;6.73;81.03
6096;BME280;25081;42.698;23.298;2023-04-15T02:55:35;94515.72;;;6.51;80.93
6096;BME280;25081;42.698;23.298;2023-04-15T02:57:45;94547.94;;;6.64;80.80
6096;BME280;25081;42.698;23.298;2023-04-15T02:59:56;94553.16;;;6.62;81.20
6096;BME280;25081;42.698;23.298;2023-04-15T03:02:06;94549.31;;;6.57;81.23
6096;BME280;25081;42.698;23.298;2023-04-15T03:04:16;94551.17;;;6.50;81.39
6096;BME280;25081;42.698;23.298;2023-04-15T03:06:27;94560.88;;;6.47;82.10
6096;BME280;25081;42.698;23.298;2023-04-15T03:08:37;94555.88;;;6.48;82.01
6096;BME280;25081;42.698;23.298;2023-04-15T03:10:48;94559.27;;;6.40;81.68
6096;BME280;25081;42.698;23.298;2023-04-15T03:12:58;94562.95;;;6.32;81.83
6096;BME280;25081;42.698;23.298;2023-04-15T03:15:10;94565.96;;;6.13;81.70
6096;BME280;25081;42.698;23.298;2023-04-15T03:17:21;94571.81;;;5.93;82.06
6096;BME280;25081;42.698;23.298;2023-04-15T03:19:31;94577.02;;;5.90;82.40
6096;BME280;25081;42.698;23.298;2023-04-15T03:21:42;94577.70;;;5.75;82.89
6096;BME280;25081;42.698;23.298;2023-04-15T03:23:52;94574.07;;;5.69;83.54
6096;BME280;25081;42.698;23.298;2023-04-15T03:26:03;94572.93;;;5.74;83.52
6096;BME280;25081;42.698;23.298;2023-04-15T03:28:13;94574.85;;;5.77;83.48
6096;BME280;25081;42.698;23.298;2023-04-15T03:30:24;94581.47;;;5.77;83.22
6096;BME280;25081;42.698;23.298;2023-04-15T03:32:34;94581.77;;;5.78;83.37
6096;BME280;25081;42.698;23.298;2023-04-15T03:34:45;94589.91;;;5.83;83.46
6096;BME280;25081;42.698;23.298;2023-04-15T03:36:55;94591.44;;;5.81;83.14
6096;BME280;25081;42.698;23.298;2023-04-15T03:39:06;94597.03;;;5.82;83.20
6096;BME280;25081;42.698;23.298;2023-04-15T03:41:16;94595.61;;;5.73;83.36
6096;BME280;25081;42.698;23.298;2023-04-15T03:43:27;94599.80;;;5.71;83.80
6096;BME280;25081;42.698;23.298;2023-04-15T03:45:37;94608.84;;;5.73;83.91
6096;BME280;25081;42.698;23.298;2023-04-15T03:47:48;94613.32;;;5.79;84.06
6096;BME280;25081;42.698;23.298;2023-04-15T03:49:58;94614.94;;;5.80;83.95
6096;BME280;25081;42.698;23.298;2023-04-15T03:52:09;94621.25;;;5.79;83.99
6096;BME280;25081;42.698;23.298;2023-04-15T03:54:19;94624.71;;;5.80;84.05
6096;BME280;25081;42.698;23.298;2023-04-15T03:56:30;94625.50;;;5.87;83.86
6096;BME280;25081;42.698;23.298;2023-04-15T03:58:40;94624.69;;;5.86;83.64
6096;BME280;25081;42.698;23.298;2023-04-15T04:00:51;94623.97;;;5.88;83.47
6096;BME280;25081;42.698;23.298;2023-04-15T04:03:01;94620.96;;;5.91;83.34
6096;BME280;25081;42.698;23.298;2023-04-15T04:05:12;94613.59;;;5.87;83.38
6096;BME280;25081;42.698;23.298;2023-04-15T04:07:23;94607.91;;;5.83;83.38
6096;BME280;25081;42.698;23.298;2023-04-15T04:09:33;94613.53;;;5.91;83.71
6096;BME280;25081;42.698;23.298;2023-04-15T04:11:44;94620.51;;;5.88;83.92
6096;BME280;25081;42.698;23.298;2023-04-15T04:13:54;94614.23;;;5.89;83.88
6096;BME280;25081;42.698;23.298;2023-04-15T04:16:06;94614.11;;;5.86;83.91
6096;BME280;25081;42.698;23.298;2023-04-15T04:18:16;94619.34;;;5.90;83.94
6096;BME280;25081;42.698;23.298;2023-04-15T04:20:27;94615.55;;;5.82;84.20
6096;BME280;25081;42.698;23.298;2023-04-15T04:22:39;94621.83;;;5.88;83.97
6096;BME280;25081;42.698;23.298;2023-04-15T04:24:49;94623.30;;;5.90;83.80
6096;BME280;25081;42.698;23.298;2023-04-15T04:26:59;94622.64;;;5.88;83.67
6096;BME280;25081;42.698;23.298;2023-04-15T04:29:10;94621.14;;;5.90;83.56
6096;BME280;25081;42.698;23.298;2023-04-15T04:31:21;94621.27;;;5.92;83.74
6096;BME280;25081;42.698;23.298;2023-04-15T04:33:31;94632.23;;;5.89;83.99
6096;BME280;25081;42.698;23.298;2023-04-15T04:35:41;94633.74;;;6.08;83.78
6096;BME280;25081;42.698;23.298;2023-04-15T04:37:52;94631.09;;;6.27;83.31
6096;BME280;25081;42.698;23.298;2023-04-15T04:40:04;94631.86;;;6.35;82.34
6096;BME280;25081;42.698;23.298;2023-04-15T04:42:14;94635.95;;;6.37;82.09
6096;BME280;25081;42.698;23.298;2023-04-15T04:44:24;94634.41;;;6.39;81.81
6096;BME280;25081;42.698;23.298;2023-04-15T04:46:35;94632.43;;;6.56;81.50
6096;BME280;25081;42.698;23.298;2023-04-15T04:48:46;94631.73;;;6.74;81.13
6096;BME280;25081;42.698;23.298;2023-04-15T04:50:56;94635.66;;;6.87;80.50
6096;BME280;25081;42.698;23.298;2023-04-15T04:53:07;94644.43;;;7.04;80.21
6096;BME280;25081;42.698;23.298;2023-04-15T04:55:17;94637.86;;;7.13;78.83
6096;BME280;25081;42.698;23.298;2023-04-15T04:57:28;94642.19;;;7.23;77.84
6096;BME280;25081;42.698;23.298;2023-04-15T04:59:38;94647.60;;;7.26;77.47
6096;BME280;25081;42.698;23.298;2023-04-15T05:01:49;94640.07;;;7.38;76.91
6096;BME280;25081;42.698;23.298;2023-04-15T05:03:59;94645.66;;;7.96;76.51
6096;BME280;25081;42.698;23.298;2023-04-15T05:06:09;94639.80;;;9.31;72.72
6096;BME280;25081;42.698;23.298;2023-04-15T05:08:20;94651.83;;;10.41;64.77
6096;BME280;25081;42.698;23.298;2023-04-15T05:10:30;94637.66;;;11.87;60.88
6096;BME280;25081;42.698;23.298;2023-04-15T05:12:41;94647.79;;;12.71;62.05
6096;BME280;25081;42.698;23.298;2023-04-15T05:14:51;94647.90;;;12.59;55.45
6096;BME280;25081;42.698;23.298;2023-04-15T05:17:02;94648.89;;;13.60;54.12
6096;BME280;25081;42.698;23.298;2023-04-15T05:19:12;94660.88;;;12.51;55.01
6096;BME280;25081;42.698;23.298;2023-04-15T05:21:23;94660.05;;;12.86;54.66
6096;BME280;25081;42.698;23.298;2023-04-15T05:23:33;94663.88;;;13.59;51.06
6096;BME280;25081;42.698;23.298;2023-04-15T05:25:44;94664.86;;;13.26;52.67
6096;BME280;25081;42.698;23.298;2023-04-15T05:27:54;94661.11;;;14.35;51.73
6096;BME280;25081;42.698;23.298;2023-04-15T05:30:06;94664.80;;;15.03;47.75
6096;BME280;25081;42.698;23.298;2023-04-15T05:32:17;94652.54;;;16.08;49.53
6096;BME280;25081;42.698;23.298;2023-04-15T05:34:27;94652.34;;;15.44;45.56
6096;BME280;25081;42.698;23.298;2023-04-15T05:36:38;94646.55;;;15.02;46.31
6096;BME280;25081;42.698;23.298;2023-04-15T05:38:48;94657.43;;;12.72;51.40
6096;BME280;25081;42.698;23.298;2023-04-15T05:40:59;94649.84;;;14.00;50.18
6096;BME280;25081;42.698;23.298;2023-04-15T05:43:09;94645.42;;;15.58;46.84
6096;BME280;25081;42.698;23.298;2023-04-15T05:45:20;94637.38;;;17.19;42.67
6096;BME280;25081;42.698;23.298;2023-04-15T05:47:30;94645.32;;;17.46;40.97
6096;BME280;25081;42.698;23.298;2023-04-15T05:49:41;94645.83;;;16.53;42.86
6096;BME280;25081;42.698;23.298;2023-04-15T05:51:51;94651.64;;;17.84;42.44
6096;BME280;25081;42.698;23.298;2023-04-15T05:54:02;94647.94;;;18.53;38.96
6096;BME280;25081;42.698;23.298;2023-04-15T05:56:12;94647.94;;;18.53;38.96
6096;BME280;25081;42.698;23.298;2023-04-15T05:58:23;94654.17;;;19.78;37.53
6096;BME280;25081;42.698;23.298;2023-04-15T06:00:34;94652.94;;;20.48;34.73
6096;BME280;25081;42.698;23.298;2023-04-15T06:02:44;94664.41;;;20.59;34.68
6096;BME280;25081;42.698;23.298;2023-04-15T06:04:55;94653.22;;;20.63;35.39
6096;BME280;25081;42.698;23.298;2023-04-15T06:07:05;94660.84;;;19.16;37.11
6096;BME280;25081;42.698;23.298;2023-04-15T06:09:16;94665.41;;;17.05;40.73
6096;BME280;25081;42.698;23.298;2023-04-15T06:11:26;94671.10;;;16.19;43.06
6096;BME280;25081;42.698;23.298;2023-04-15T06:13:37;94671.91;;;15.27;44.60
6096;BME280;25081;42.698;23.298;2023-04-15T06:15:48;94671.91;;;15.27;44.60
6096;BME280;25081;42.698;23.298;2023-04-15T06:17:58;94675.63;;;14.71;45.89
6096;BME280;25081;42.698;23.298;2023-04-15T06:20:10;94675.93;;;16.10;45.13
6096;BME280;25081;42.698;23.298;2023-04-15T06:22:21;94676.55;;;16.99;42.71
6096;BME280;25081;42.698;23.298;2023-04-15T06:24:31;94665.08;;;17.55;40.85
6096;BME280;25081;42.698;23.298;2023-04-15T06:26:42;94665.08;;;18.99;38.19
6096;BME280;25081;42.698;23.298;2023-04-15T06:28:52;94685.45;;;19.39;36.97
6096;BME280;25081;42.698;23.298;2023-04-15T06:31:03;94685.16;;;19.43;37.12
6096;BME280;25081;42.698;23.298;2023-04-15T06:33:13;94683.92;;;19.81;36.75
6096;BME280;25081;42.698;23.298;2023-04-15T06:35:24;94689.80;;;20.47;34.98
6096;BME280;25081;42.698;23.298;2023-04-15T06:37:34;94693.60;;;19.36;35.56
6096;BME280;25081;42.698;23.298;2023-04-15T06:39:45;94696.82;;;19.86;36.26
6096;BME280;25081;42.698;23.298;2023-04-15T06:41:55;94692.71;;;20.83;34.22
6096;BME280;25081;42.698;23.298;2023-04-15T06:44:06;94688.63;;;20.85;34.20
6096;BME280;25081;42.698;23.298;2023-04-15T06:46:16;94691.18;;;22.22;32.67
6096;BME280;25081;42.698;23.298;2023-04-15T06:48:27;94689.13;;;20.88;32.44
6096;BME280;25081;42.698;23.298;2023-04-15T06:50:37;94698.05;;;20.72;33.55
6096;BME280;25081;42.698;23.298;2023-04-15T06:52:48;94703.91;;;19.61;34.68
6096;BME280;25081;42.698;23.298;2023-04-15T06:54:58;94696.28;;;20.97;33.08
6096;BME280;25081;42.698;23.298;2023-04-15T06:57:09;94698.08;;;21.89;33.14
6096;BME280;25081;42.698;23.298;2023-04-15T06:59:19;94695.60;;;22.76;31.23
6096;BME280;25081;42.698;23.298;2023-04-15T07:01:30;94696.81;;;21.98;31.48
6096;BME280;25081;42.698;23.298;2023-04-15T07:03:40;94696.49;;;20.30;33.43
6096;BME280;25081;42.698;23.298;2023-04-15T07:05:51;94693.06;;;18.84;36.51
6096;BME280;25081;42.698;23.298;2023-04-15T07:08:01;94688.94;;;20.49;34.26
6096;BME280;25081;42.698;23.298;2023-04-15T07:10:12;94690.09;;;20.62;33.37
6096;BME280;25081;42.698;23.298;2023-04-15T07:12:22;94699.26;;;19.40;35.89
6096;BME280;25081;42.698;23.298;2023-04-15T07:14:33;94691.03;;;20.33;33.51
6096;BME280;25081;42.698;23.298;2023-04-15T07:16:43;94688.65;;;20.83;32.61
6096;BME280;25081;42.698;23.298;2023-04-15T07:18:54;94695.95;;;17.70;38.67
6096;BME280;25081;42.698;23.298;2023-04-15T07:21:05;94689.98;;;17.15;40.34
6096;BME280;25081;42.698;23.298;2023-04-15T07:23:15;94684.32;;;16.73;41.61
6096;BME280;25081;42.698;23.298;2023-04-15T07:25:26;94684.32;;;18.21;37.58
6096;BME280;25081;42.698;23.298;2023-04-15T07:27:36;94698.81;;;19.54;36.24
6096;BME280;25081;42.698;23.298;2023-04-15T07:29:46;94692.21;;;19.87;34.17
6096;BME280;25081;42.698;23.298;2023-04-15T07:31:57;94692.16;;;20.83;32.89
6096;BME280;25081;42.698;23.298;2023-04-15T07:34:07;94686.97;;;22.97;29.96
6096;BME280;25081;42.698;23.298;2023-04-15T07:36:18;94685.83;;;23.51;28.69
6096;BME280;25081;42.698;23.298;2023-04-15T07:38:28;94690.45;;;21.36;31.15
6096;BME280;25081;42.698;23.298;2023-04-15T07:40:39;94698.30;;;16.43;39.33
6096;BME280;25081;42.698;23.298;2023-04-15T07:42:49;94696.06;;;17.32;37.93
6096;BME280;25081;42.698;23.298;2023-04-15T07:45:00;94696.06;;;17.32;37.93
6096;BME280;25081;42.698;23.298;2023-04-15T07:47:10;94681.01;;;21.18;33.13
6096;BME280;25081;42.698;23.298;2023-04-15T07:49:21;94686.16;;;20.70;31.79
6096;BME280;25081;42.698;23.298;2023-04-15T07:51:31;94694.80;;;16.94;38.11
6096;BME280;25081;42.698;23.298;2023-04-15T07:53:41;94706.01;;;18.03;36.88
6096;BME280;25081;42.698;23.298;2023-04-15T07:55:52;94700.12;;;18.77;35.75
6096;BME280;25081;42.698;23.298;2023-04-15T07:58:02;94694.42;;;20.44;32.55
6096;BME280;25081;42.698;23.298;2023-04-15T08:00:15;94704.98;;;22.12;30.07
6096;BME280;25081;42.698;23.298;2023-04-15T08:02:25;94698.58;;;23.64;27.68
6096;BME280;25081;42.698;23.298;2023-04-15T08:04:36;94703.34;;;21.28;30.70
6096;BME280;25081;42.698;23.298;2023-04-15T08:06:46;94706.38;;;21.68;29.95
6096;BME280;25081;42.698;23.298;2023-04-15T08:08:56;94720.55;;;18.54;34.45
6096;BME280;25081;42.698;23.298;2023-04-15T08:11:07;94715.06;;;18.67;34.83
6096;BME280;25081;42.698;23.298;2023-04-15T08:13:17;94718.36;;;18.17;35.43
6096;BME280;25081;42.698;23.298;2023-04-15T08:15:28;94622.28;;;17.80;36.59
6096;BME280;25081;42.698;23.298;2023-04-15T08:17:38;94710.95;;;18.36;35.36
6096;BME280;25081;42.698;23.298;2023-04-15T08:19:49;94708.53;;;19.55;32.93
6096;BME280;25081;42.698;23.298;2023-04-15T08:21:59;94712.48;;;18.86;33.42
6096;BME280;25081;42.698;23.298;2023-04-15T08:24:10;94713.55;;;18.09;34.40
6096;BME280;25081;42.698;23.298;2023-04-15T08:26:20;94710.45;;;18.99;33.51
6096;BME280;25081;42.698;23.298;2023-04-15T08:28:31;94706.37;;;21.40;30.34
6096;BME280;25081;42.698;23.298;2023-04-15T08:30:41;94712.16;;;19.93;30.55
6096;BME280;25081;42.698;23.298;2023-04-15T08:32:52;94709.03;;;18.39;33.35
6096;BME280;25081;42.698;23.298;2023-04-15T08:35:03;94686.79;;;17.61;34.31
6096;BME280;25081;42.698;23.298;2023-04-15T08:37:13;94706.66;;;17.72;34.80
6096;BME280;25081;42.698;23.298;2023-04-15T08:39:24;94703.22;;;17.88;33.67
6096;BME280;25081;42.698;23.298;2023-04-15T08:41:39;94703.22;;;18.24;33.73
6096;BME280;25081;42.698;23.298;2023-04-15T08:43:46;94690.58;;;17.55;34.36
6096;BME280;25081;42.698;23.298;2023-04-15T08:45:56;94700.80;;;19.22;32.35
6096;BME280;25081;42.698;23.298;2023-04-15T08:48:07;94626.47;;;19.22;32.35
6096;BME280;25081;42.698;23.298;2023-04-15T08:50:17;94698.13;;;19.67;31.25
6096;BME280;25081;42.698;23.298;2023-04-15T08:52:29;94700.20;;;16.83;35.36
6096;BME280;25081;42.698;23.298;2023-04-15T08:54:38;94702.84;;;17.19;36.11
6096;BME280;25081;42.698;23.298;2023-04-15T08:56:49;94701.47;;;17.99;34.67
6096;BME280;25081;42.698;23.298;2023-04-15T08:58:59;94697.35;;;17.50;35.71
6096;BME280;25081;42.698;23.298;2023-04-15T09:01:10;94697.35;;;17.50;35.71
6096;BME280;25081;42.698;23.298;2023-04-15T09:03:20;94692.92;;;17.82;35.42
6096;BME280;25081;42.698;23.298;2023-04-15T09:05:32;94690.55;;;18.19;33.12
6096;BME280;25081;42.698;23.298;2023-04-15T09:07:42;94665.02;;;18.77;32.67
6096;BME280;25081;42.698;23.298;2023-04-15T09:09:53;94665.02;;;18.77;32.67
6096;BME280;25081;42.698;23.298;2023-04-15T09:12:03;94672.84;;;20.36;29.95
6096;BME280;25081;42.698;23.298;2023-04-15T09:14:14;94676.44;;;20.32;29.42
6096;BME280;25081;42.698;23.298;2023-04-15T09:16:24;94672.89;;;18.74;32.28
6096;BME280;25081;42.698;23.298;2023-04-15T09:18:36;94673.37;;;17.48;33.93
6096;BME280;25081;42.698;23.298;2023-04-15T09:20:45;94665.64;;;18.30;34.58
6096;BME280;25081;42.698;23.298;2023-04-15T09:22:56;94630.56;;;18.30;34.58
6096;BME280;25081;42.698;23.298;2023-04-15T09:25:25;94657.16;;;18.47;32.70
6096;BME280;25081;42.698;23.298;2023-04-15T09:27:37;94661.94;;;20.41;30.00
6096;BME280;25081;42.698;23.298;2023-04-15T09:29:50;94648.16;;;21.05;29.46
6096;BME280;25081;42.698;23.298;2023-04-15T09:32:11;94661.17;;;18.13;34.28
6096;BME280;25081;42.698;23.298;2023-04-15T09:34:21;94660.45;;;18.75;33.08
6096;BME280;25081;42.698;23.298;2023-04-15T09:36:36;94661.17;;;19.12;32.80
6096;BME280;25081;42.698;23.298;2023-04-15T09:38:55;94669.55;;;19.83;31.17
6096;BME280;25081;42.698;23.298;2023-04-15T09:41:06;94661.61;;;21.10;29.21
6096;BME280;25081;42.698;23.298;2023-04-15T09:43:16;94654.83;;;21.68;29.68
6096;BME280;25081;42.698;23.298;2023-04-15T09:45:27;94658.34;;;20.81;29.18
6096;BME280;25081;42.698;23.298;2023-04-15T09:47:38;94670.59;;;18.54;32.71
6096;BME280;25081;42.698;23.298;2023-04-15T09:49:56;94672.99;;;16.57;36.35
6096;BME280;25081;42.698;23.298;2023-04-15T09:52:06;94672.99;;;16.57;36.35
6096;BME280;25081;42.698;23.298;2023-04-15T09:54:20;94662.74;;;17.74;35.00
6096;BME280;25081;42.698;23.298;2023-04-15T09:56:34;94665.55;;;19.32;32.85
6096;BME280;25081;42.698;23.298;2023-04-15T09:58:47;94663.25;;;17.07;31.10
6096;BME280;25081;42.698;23.298;2023-04-15T10:00:56;94663.25;;;17.07;31.10
6096;BME280;25081;42.698;23.298;2023-04-15T10:03:06;94663.83;;;17.73;30.22
6096;BME280;25081;42.698;23.298;2023-04-15T10:05:16;94666.77;;;17.10;33.49
6096;BME280;25081;42.698;23.298;2023-04-15T10:07:27;94667.27;;;17.14;34.47
6096;BME280;25081;42.698;23.298;2023-04-15T10:09:38;94664.66;;;16.61;35.14
6096;BME280;25081;42.698;23.298;2023-04-15T10:11:48;94673.25;;;16.30;36.37
6096;BME280;25081;42.698;23.298;2023-04-15T10:13:58;94668.16;;;16.90;33.77
6096;BME280;25081;42.698;23.298;2023-04-15T10:16:10;94652.95;;;18.62;31.98
6096;BME280;25081;42.698;23.298;2023-04-15T10:18:20;94652.95;;;18.62;31.98
6096;BME280;25081;42.698;23.298;2023-04-15T10:20:31;94647.61;;;18.23;30.49
6096;BME280;25081;42.698;23.298;2023-04-15T10:22:42;94647.16;;;18.47;29.87
6096;BME280;25081;42.698;23.298;2023-04-15T10:24:52;94647.16;;;18.47;29.87
6096;BME280;25081;42.698;23.298;2023-04-15T10:27:03;94641.22;;;18.82;28.85
6096;BME280;25081;42.698;23.298;2023-04-15T10:29:13;94638.38;;;19.66;27.63
6096;BME280;25081;42.698;23.298;2023-04-15T10:31:24;94638.61;;;18.98;27.29
6096;BME280;25081;42.698;23.298;2023-04-15T10:33:34;94638.45;;;18.87;27.26
6096;BME280;25081;42.698;23.298;2023-04-15T10:35:45;94627.27;;;19.23;27.00
6096;BME280;25081;42.698;23.298;2023-04-15T10:37:55;94628.40;;;18.61;27.32
6096;BME280;25081;42.698;23.298;2023-04-15T10:40:24;94628.59;;;19.01;26.55
6096;BME280;25081;42.698;23.298;2023-04-15T10:42:35;94629.77;;;19.40;25.80
6096;BME280;25081;42.698;23.298;2023-04-15T10:44:47;94626.20;;;19.66;26.99
6096;BME280;25081;42.698;23.298;2023-04-15T10:46:56;94632.77;;;18.25;28.94
6096;BME280;25081;42.698;23.298;2023-04-15T10:49:10;94631.74;;;19.08;28.50
6096;BME280;25081;42.698;23.298;2023-04-15T10:51:30;94631.74;;;19.08;28.50
6096;BME280;25081;42.698;23.298;2023-04-15T10:53:41;94625.82;;;20.13;27.83
6096;BME280;25081;42.698;23.298;2023-04-15T10:55:52;94623.47;;;21.07;26.92
6096;BME280;25081;42.698;23.298;2023-04-15T10:58:02;94623.44;;;20.28;27.86
6096;BME280;25081;42.698;23.298;2023-04-15T11:00:15;94621.86;;;20.43;27.79
6096;BME280;25081;42.698;23.298;2023-04-15T11:02:33;94616.08;;;20.66;27.33
6096;BME280;25081;42.698;23.298;2023-04-15T11:04:54;94610.78;;;20.58;27.25
6096;BME280;25081;42.698;23.298;2023-04-15T11:07:07;94614.39;;;20.16;27.60
6096;BME280;25081;42.698;23.298;2023-04-15T11:09:31;94609.67;;;20.43;26.75
6096;BME280;25081;42.698;23.298;2023-04-15T11:14:29;94606.92;;;20.11;28.13
6096;BME280;25081;42.698;23.298;2023-04-15T11:16:43;94610.43;;;19.73;28.06
6096;BME280;25081;42.698;23.298;2023-04-15T11:18:55;94605.22;;;20.15;27.97
6096;BME280;25081;42.698;23.298;2023-04-15T11:21:06;94601.77;;;19.93;28.15
6096;BME280;25081;42.698;23.298;2023-04-15T11:23:17;94602.17;;;19.84;27.85
6096;BME280;25081;42.698;23.298;2023-04-15T11:25:27;94590.41;;;20.28;28.00
6096;BME280;25081;42.698;23.298;2023-04-15T11:27:38;94601.27;;;20.07;28.56
6096;BME280;25081;42.698;23.298;2023-04-15T11:29:48;94609.54;;;19.78;28.56
6096;BME280;25081;42.698;23.298;2023-04-15T11:32:10;94596.72;;;19.86;28.40
6096;BME280;25081;42.698;23.298;2023-04-15T11:34:23;94600.75;;;20.08;28.54
6096;BME280;25081;42.698;23.298;2023-04-15T11:36:34;94593.59;;;19.98;27.86
6096;BME280;25081;42.698;23.298;2023-04-15T11:38:46;94588.41;;;20.18;27.67
6096;BME280;25081;42.698;23.298;2023-04-15T11:40:57;94600.03;;;20.35;27.46
6096;BME280;25081;42.698;23.298;2023-04-15T11:43:08;94598.96;;;19.82;25.69